createdAt,value
2023-05-17T00:02:03.379Z,99.90
2023-05-17T00:04:49.135Z,99.90
2023-05-17T00:07:34.997Z,99.90
2023-05-17T00:10:20.872Z,99.90
2023-05-17T00:13:06.851Z,99.90
2023-05-17T00:15:52.747Z,99.90
2023-05-17T00:18:40.345Z,99.90
2023-05-17T00:21:26.669Z,99.90
2023-05-17T00:24:12.780Z,99.90
2023-05-17T00:26:58.384Z,99.90
2023-05-17T00:29:44.346Z,99.90
2023-05-17T00:32:30.217Z,99.90
2023-05-17T00:35:17.667Z,99.90
2023-05-17T00:38:03.913Z,99.90
2023-05-17T00:40:50.364Z,99.90
2023-05-17T00:43:36.062Z,99.90
2023-05-17T00:46:21.711Z,99.90
2023-05-17T00:49:07.741Z,99.90
2023-05-17T00:51:55.819Z,99.90
2023-05-17T00:54:42.189Z,99.90
2023-05-17T00:57:29.260Z,99.90
2023-05-17T01:00:15.605Z,99.90
2023-05-17T01:03:01.507Z,99.90
2023-05-17T01:05:48.376Z,99.90
2023-05-17T01:08:35.522Z,99.90
2023-05-17T01:11:31.969Z,99.90
2023-05-17T01:14:27.236Z,99.90
2023-05-17T01:17:17.053Z,99.90
2023-05-17T01:20:10.985Z,99.90
2023-05-17T01:23:16.628Z,99.90
2023-05-17T01:26:10.903Z,99.90
2023-05-17T01:29:01.040Z,99.90
2023-05-17T01:31:48.290Z,99.90
2023-05-17T01:34:35.408Z,99.90
2023-05-17T01:37:21.880Z,99.90
2023-05-17T01:40:09.535Z,99.90
2023-05-17T01:43:03.236Z,99.90
2023-05-17T01:45:59.841Z,99.90
2023-05-17T01:48:52.757Z,99.90
2023-05-17T01:51:47.526Z,99.90
2023-05-17T01:54:39.294Z,99.90
2023-05-17T01:57:32.488Z,99.90
2023-05-17T02:00:19.336Z,99.90
2023-05-17T02:03:06.540Z,99.90
2023-05-17T02:05:52.141Z,99.90
2023-05-17T02:08:38.134Z,99.90
2023-05-17T02:11:23.792Z,99.90
2023-05-17T02:14:11.628Z,99.90
2023-05-17T02:16:57.357Z,99.90
2023-05-17T02:19:44.544Z,99.90
2023-05-17T02:22:30.311Z,99.90
2023-05-17T02:25:17.235Z,99.90
2023-05-17T02:28:02.886Z,99.90
2023-05-17T02:30:48.747Z,99.90
2023-05-17T02:33:34.525Z,99.90
2023-05-17T02:36:22.051Z,99.90
2023-05-17T02:39:07.816Z,99.90
2023-05-17T02:41:53.393Z,99.90
2023-05-17T02:44:39.158Z,99.90
2023-05-17T02:47:24.948Z,99.90
2023-05-17T02:50:10.945Z,99.90
2023-05-17T02:52:58.269Z,99.90
2023-05-17T02:55:44.063Z,99.90
2023-05-17T02:58:30.084Z,99.90
2023-05-17T03:01:16.048Z,99.90
2023-05-17T03:04:01.987Z,99.90
2023-05-17T03:06:48.032Z,99.90
2023-05-17T03:09:35.453Z,99.90
2023-05-17T03:12:21.038Z,99.90
2023-05-17T03:15:07.515Z,99.90
2023-05-17T03:17:53.557Z,99.90
2023-05-17T03:20:39.135Z,99.90
2023-05-17T03:23:25.937Z,99.90
2023-05-17T03:26:19.740Z,99.90
2023-05-17T03:29:08.664Z,99.90
2023-05-17T03:31:55.240Z,99.90
2023-05-17T03:34:41.324Z,99.90
2023-05-17T03:37:27.366Z,99.90
2023-05-17T03:40:13.081Z,99.90
2023-05-17T03:43:00.045Z,99.90
2023-05-17T03:45:47.524Z,99.90
2023-05-17T03:48:36.493Z,99.90
2023-05-17T03:51:23.628Z,99.90
2023-05-17T03:54:09.211Z,99.90
2023-05-17T03:56:55.822Z,99.90
2023-05-17T03:59:43.686Z,99.90
2023-05-17T04:02:29.351Z,99.90
2023-05-17T04:05:15.188Z,99.90
2023-05-17T04:08:05.343Z,99.90
2023-05-17T04:10:51.355Z,99.90
2023-05-17T04:13:39.980Z,99.90
2023-05-17T04:16:27.051Z,99.90
2023-05-17T04:19:14.686Z,99.90
2023-05-17T04:22:00.260Z,99.90
2023-05-17T04:24:46.864Z,99.90
2023-05-17T04:27:33.350Z,99.90
2023-05-17T04:30:21.409Z,99.90
2023-05-17T04:33:08.402Z,99.90
2023-05-17T04:35:55.162Z,99.90
2023-05-17T04:38:41.627Z,99.90
2023-05-17T04:41:31.331Z,99.90
2023-05-17T04:44:18.606Z,99.90
2023-05-17T04:47:04.919Z,99.90
2023-05-17T04:49:52.334Z,99.90
2023-05-17T04:52:38.715Z,99.90
2023-05-17T04:55:24.539Z,99.90
2023-05-17T04:58:10.802Z,99.90
2023-05-17T05:00:57.774Z,99.90
2023-05-17T05:03:43.955Z,99.90
2023-05-17T05:06:32.764Z,99.90
2023-05-17T05:09:18.990Z,97.40
2023-05-17T05:12:06.486Z,94.60
2023-05-17T05:14:53.179Z,91.70
2023-05-17T05:17:39.184Z,88.60
2023-05-17T05:20:27.691Z,84.70
2023-05-17T05:23:18.432Z,80.60
2023-05-17T05:26:06.219Z,75.20
2023-05-17T05:28:51.961Z,71.80
2023-05-17T05:31:38.089Z,69.20
2023-05-17T05:34:27.411Z,66.30
2023-05-17T05:37:15.720Z,66.00
2023-05-17T05:40:04.212Z,65.00
2023-05-17T05:42:50.179Z,61.90
2023-05-17T05:45:36.303Z,60.50
2023-05-17T05:48:22.932Z,58.00
2023-05-17T05:51:08.917Z,57.60
2023-05-17T05:53:58.539Z,56.70
2023-05-17T05:56:46.445Z,56.90
2023-05-17T05:59:34.623Z,55.00
2023-05-17T06:02:21.334Z,54.40
2023-05-17T06:05:08.268Z,54.00
2023-05-17T06:07:54.194Z,53.30
2023-05-17T06:10:40.249Z,54.70
2023-05-17T06:13:27.385Z,55.50
2023-05-17T06:16:13.321Z,55.40
2023-05-17T06:18:59.532Z,53.50
2023-05-17T06:21:45.190Z,55.10
2023-05-17T06:24:30.947Z,54.30
2023-05-17T06:27:17.064Z,52.60
2023-05-17T06:30:07.334Z,52.60
2023-05-17T06:32:53.384Z,52.40
2023-05-17T06:35:54.801Z,52.70
2023-05-17T06:38:41.993Z,52.80
2023-05-17T06:41:27.695Z,51.10
2023-05-17T06:44:14.112Z,50.60
2023-05-17T06:47:01.382Z,51.60
2023-05-17T06:49:47.223Z,51.50
2023-05-17T06:52:33.049Z,51.20
2023-05-17T06:55:18.935Z,49.50
2023-05-17T06:58:04.808Z,49.00
2023-05-17T07:00:50.937Z,48.40
2023-05-17T07:03:38.015Z,48.30
2023-05-17T07:06:24.258Z,47.70
2023-05-17T07:09:10.216Z,46.60
2023-05-17T07:11:56.096Z,49.50
2023-05-17T07:14:42.127Z,50.50
2023-05-17T07:17:28.866Z,49.90
2023-05-17T07:20:16.656Z,48.30
2023-05-17T07:23:02.486Z,47.50
2023-05-17T07:25:48.978Z,47.40
2023-05-17T07:28:34.778Z,47.50
2023-05-17T07:31:20.408Z,47.50
2023-05-17T07:34:06.018Z,46.30
2023-05-17T07:36:53.448Z,47.00
2023-05-17T07:39:39.375Z,47.70
2023-05-17T07:42:25.515Z,50.30
2023-05-17T07:45:11.815Z,52.20
2023-05-17T07:47:57.674Z,55.00
2023-05-17T07:50:45.059Z,56.50
2023-05-17T07:53:32.390Z,56.90
2023-05-17T07:56:18.168Z,59.20
2023-05-17T07:59:03.706Z,61.40
2023-05-17T08:01:49.940Z,56.50
2023-05-17T08:04:36.126Z,55.00
2023-05-17T08:07:21.973Z,53.70
2023-05-17T08:10:10.658Z,53.50
2023-05-17T08:12:56.861Z,52.30
2023-05-17T08:15:43.006Z,52.90
2023-05-17T08:18:29.049Z,52.00
2023-05-17T08:21:14.995Z,52.10
2023-05-17T08:24:03.330Z,54.60
2023-05-17T08:26:51.127Z,52.30
2023-05-17T08:29:39.527Z,54.70
2023-05-17T08:32:26.177Z,53.90
2023-05-17T08:35:12.660Z,55.10
2023-05-17T08:37:58.629Z,56.80
2023-05-17T08:40:44.419Z,58.30
2023-05-17T08:43:32.366Z,59.20
2023-05-17T08:46:23.617Z,59.10
2023-05-17T08:49:12.991Z,61.90
2023-05-17T08:52:00.803Z,58.70
2023-05-17T08:54:47.268Z,60.10
2023-05-17T08:57:36.224Z,57.40
2023-05-17T09:00:25.095Z,55.20
2023-05-17T09:03:17.926Z,57.60
2023-05-17T09:06:04.838Z,59.80
2023-05-17T09:08:54.710Z,65.70
2023-05-17T09:11:40.997Z,64.20
2023-05-17T09:14:33.808Z,65.90
2023-05-17T09:17:22.102Z,65.90
2023-05-17T09:20:09.038Z,62.90
2023-05-17T09:22:55.729Z,60.70
2023-05-17T09:25:47.979Z,62.40
2023-05-17T09:28:39.063Z,64.90
2023-05-17T09:31:25.045Z,60.80
2023-05-17T09:34:15.117Z,60.30
2023-05-17T09:37:01.090Z,59.50
2023-05-17T09:39:48.277Z,58.30
2023-05-17T09:42:39.251Z,55.50
2023-05-17T09:45:25.533Z,56.20
2023-05-17T09:48:15.157Z,54.40
2023-05-17T09:51:02.570Z,57.00
2023-05-17T09:53:54.521Z,58.70
2023-05-17T09:56:41.018Z,58.70
2023-05-17T09:59:29.165Z,57.70
2023-05-17T10:02:22.157Z,54.80
2023-05-17T10:05:11.119Z,54.50
2023-05-17T10:07:58.742Z,52.70
2023-05-17T10:10:46.401Z,50.00
2023-05-17T10:13:35.087Z,51.20
2023-05-17T10:16:23.468Z,51.40
2023-05-17T10:19:11.539Z,54.50
2023-05-17T10:22:05.060Z,53.70
2023-05-17T10:25:07.905Z,50.90
2023-05-17T10:27:54.478Z,53.10
2023-05-17T10:30:41.514Z,52.60
2023-05-17T10:33:28.133Z,52.90
2023-05-17T10:36:17.365Z,52.30
2023-05-17T10:39:03.375Z,54.30
2023-05-17T10:41:55.762Z,50.80
2023-05-17T10:44:49.275Z,49.90
2023-05-17T10:47:35.690Z,46.60
2023-05-17T10:50:27.002Z,49.00
2023-05-17T10:53:13.003Z,49.70
2023-05-17T10:55:58.883Z,46.30
2023-05-17T10:58:46.177Z,44.60
2023-05-17T11:01:52.981Z,45.30
2023-05-17T11:04:40.164Z,46.00
2023-05-17T11:07:29.443Z,46.60
2023-05-17T11:10:17.062Z,43.60
2023-05-17T11:13:22.764Z,46.40
2023-05-17T11:16:09.759Z,44.00
2023-05-17T11:19:06.425Z,45.40
2023-05-17T11:21:52.412Z,44.20
2023-05-17T11:24:44.037Z,46.00
2023-05-17T11:27:37.432Z,43.90
2023-05-17T11:30:24.673Z,46.10
2023-05-17T11:33:24.873Z,46.20
2023-05-17T11:36:22.779Z,44.80
2023-05-17T11:39:12.831Z,45.00
2023-05-17T11:41:58.724Z,45.00
2023-05-17T11:44:44.747Z,46.10
2023-05-17T11:47:31.383Z,47.50
2023-05-17T11:50:18.966Z,46.70
2023-05-17T11:53:05.394Z,44.50
2023-05-17T11:55:52.705Z,45.80
2023-05-17T11:58:38.859Z,46.40
2023-05-17T12:01:24.526Z,46.00
2023-05-17T12:04:10.563Z,47.40
2023-05-17T12:06:58.377Z,45.50
2023-05-17T12:09:46.192Z,46.80
2023-05-17T12:12:32.501Z,46.70
2023-05-17T12:15:19.602Z,49.40
2023-05-17T12:18:05.756Z,48.90
2023-05-17T12:20:59.091Z,50.60
2023-05-17T12:23:51.067Z,46.60
2023-05-17T12:26:43.919Z,47.10
2023-05-17T12:29:30.440Z,49.90
2023-05-17T12:32:16.594Z,48.50
2023-05-17T12:35:02.726Z,48.50
2023-05-17T12:37:48.828Z,46.50
2023-05-17T12:40:35.952Z,49.50
2023-05-17T12:43:24.333Z,48.90
2023-05-17T12:46:12.883Z,50.00
2023-05-17T12:49:05.537Z,49.10
2023-05-17T12:51:51.645Z,49.10
2023-05-17T12:54:40.890Z,48.60
2023-05-17T12:57:29.835Z,51.20
2023-05-17T13:00:17.754Z,50.60
2023-05-17T13:03:09.890Z,50.30
2023-05-17T13:06:00.186Z,52.40
2023-05-17T13:08:58.820Z,50.20
2023-05-17T13:11:50.186Z,48.60
2023-05-17T13:14:45.301Z,48.10
2023-05-17T13:17:35.960Z,49.40
2023-05-17T13:20:22.244Z,47.90
2023-05-17T13:23:07.908Z,50.90
2023-05-17T13:25:54.114Z,53.90
2023-05-17T13:28:41.355Z,52.60
2023-05-17T13:31:28.467Z,51.30
2023-05-17T13:34:14.232Z,53.70
2023-05-17T13:36:59.954Z,50.00
2023-05-17T13:39:45.886Z,50.60
2023-05-17T13:42:32.101Z,50.50
2023-05-17T13:45:18.113Z,50.40
2023-05-17T13:48:05.905Z,48.00
2023-05-17T13:50:52.240Z,50.20
2023-05-17T13:53:38.810Z,50.80
2023-05-17T13:56:24.807Z,51.40
2023-05-17T13:59:10.652Z,51.40
2023-05-17T14:01:56.387Z,51.10
2023-05-17T14:04:43.611Z,48.40
2023-05-17T14:07:29.197Z,47.30
2023-05-17T14:10:15.319Z,49.70
2023-05-17T14:13:01.638Z,49.70
2023-05-17T14:15:47.710Z,52.80
2023-05-17T14:18:33.747Z,50.60
2023-05-17T14:21:21.120Z,52.10
2023-05-17T14:24:07.157Z,48.10
2023-05-17T14:26:53.156Z,50.50
2023-05-17T14:29:39.053Z,50.20
2023-05-17T14:32:25.063Z,49.30
2023-05-17T14:35:11.402Z,52.10
2023-05-17T14:37:58.611Z,52.20
2023-05-17T14:40:44.496Z,53.40
2023-05-17T14:43:30.611Z,54.00
2023-05-17T14:46:17.063Z,52.60
2023-05-17T14:49:02.811Z,51.20
2023-05-17T14:51:48.664Z,51.60
2023-05-17T14:54:36.025Z,54.10
2023-05-17T14:57:22.017Z,55.50
2023-05-17T15:00:10.522Z,50.50
2023-05-17T15:02:56.829Z,53.60
2023-05-17T15:05:42.760Z,52.10
2023-05-17T15:08:29.559Z,50.90
2023-05-17T15:11:16.588Z,49.40
2023-05-17T15:14:02.659Z,51.40
2023-05-17T15:16:48.928Z,51.00
2023-05-17T15:19:34.861Z,53.10
2023-05-17T15:22:23.877Z,51.60
2023-05-17T15:25:09.959Z,51.10
2023-05-17T15:27:57.447Z,52.60
2023-05-17T15:30:43.503Z,53.30
2023-05-17T15:33:30.808Z,52.60
2023-05-17T15:36:16.760Z,54.60
2023-05-17T15:39:02.933Z,52.90
2023-05-17T15:41:48.836Z,52.80
2023-05-17T15:44:36.255Z,51.50
2023-05-17T15:47:26.156Z,51.20
2023-05-17T15:50:17.656Z,52.50
2023-05-17T15:53:03.303Z,51.00
2023-05-17T15:55:51.998Z,51.50
2023-05-17T15:58:37.973Z,52.90
2023-05-17T16:01:24.937Z,51.10
2023-05-17T16:04:10.876Z,52.10
2023-05-17T16:06:57.097Z,51.90
2023-05-17T16:09:42.902Z,52.00
2023-05-17T16:12:28.739Z,52.00
2023-05-17T16:15:14.453Z,52.80
2023-05-17T16:18:01.813Z,53.30
2023-05-17T16:20:47.367Z,52.70
2023-05-17T16:23:33.450Z,52.10
2023-05-17T16:26:19.411Z,52.60
2023-05-17T16:29:05.664Z,51.90
2023-05-17T16:31:52.969Z,52.60
2023-05-17T16:34:40.067Z,53.20
2023-05-17T16:37:26.295Z,53.20
2023-05-17T16:40:12.545Z,52.70
2023-05-17T16:42:58.081Z,55.10
2023-05-17T16:45:44.770Z,54.50
2023-05-17T16:48:30.558Z,57.00
2023-05-17T16:51:17.894Z,57.20
2023-05-17T16:54:03.785Z,59.30
2023-05-17T16:56:49.673Z,59.50
2023-05-17T16:59:35.575Z,58.30
2023-05-17T17:02:21.773Z,58.10
2023-05-17T17:05:08.384Z,57.90
2023-05-17T17:07:55.497Z,59.20
2023-05-17T17:10:41.318Z,59.40
2023-05-17T17:13:27.297Z,61.10
2023-05-17T17:16:13.172Z,60.90
2023-05-17T17:18:59.386Z,60.40
2023-05-17T17:21:48.662Z,59.70
2023-05-17T17:24:35.992Z,58.80
2023-05-17T17:27:22.011Z,59.20
2023-05-17T17:30:08.664Z,60.10
2023-05-17T17:32:54.929Z,62.30
2023-05-17T17:35:41.073Z,63.20
2023-05-17T17:38:26.948Z,63.40
2023-05-17T17:41:14.287Z,65.80
2023-05-17T17:44:00.360Z,66.20
2023-05-17T17:46:46.168Z,67.30
2023-05-17T17:49:32.492Z,67.60
2023-05-17T17:52:18.358Z,68.40
2023-05-17T17:55:05.131Z,70.70
2023-05-17T17:57:52.591Z,69.90
2023-05-17T18:00:38.681Z,70.30
2023-05-17T18:03:24.571Z,70.10
2023-05-17T18:06:10.416Z,69.90
2023-05-17T18:08:57.757Z,70.10
2023-05-17T18:11:43.589Z,69.50
2023-05-17T18:14:30.843Z,69.40
2023-05-17T18:17:16.672Z,71.80
2023-05-17T18:20:02.526Z,71.70
2023-05-17T18:22:51.463Z,71.70
2023-05-17T18:25:37.370Z,73.00
2023-05-17T18:28:33.767Z,70.50
2023-05-17T18:31:28.260Z,71.60
2023-05-17T18:34:14.239Z,71.60
2023-05-17T18:37:00.544Z,72.50
2023-05-17T18:39:46.357Z,73.00
2023-05-17T18:42:32.248Z,73.90
2023-05-17T18:45:17.908Z,73.30
2023-05-17T18:48:05.396Z,73.30
2023-05-17T18:50:51.157Z,73.50
2023-05-17T18:53:37.164Z,74.50
2023-05-17T18:56:25.051Z,75.10
2023-05-17T18:59:11.014Z,75.70
2023-05-17T19:01:56.954Z,75.20
2023-05-17T19:04:44.096Z,75.50
2023-05-17T19:07:29.881Z,75.10
2023-05-17T19:10:15.891Z,76.10
2023-05-17T19:13:01.851Z,75.80
2023-05-17T19:15:48.485Z,76.30
2023-05-17T19:18:35.133Z,76.30
2023-05-17T19:21:22.699Z,79.60
2023-05-17T19:24:08.590Z,79.50
2023-05-17T19:26:54.587Z,79.20
2023-05-17T19:29:40.514Z,79.10
2023-05-17T19:32:26.946Z,78.40
2023-05-17T19:35:12.970Z,78.50
2023-05-17T19:38:00.315Z,78.30
2023-05-17T19:40:45.987Z,78.80
2023-05-17T19:43:34.394Z,78.70
2023-05-17T19:46:20.574Z,80.30
2023-05-17T19:49:06.717Z,80.10
2023-05-17T19:51:54.094Z,80.80
2023-05-17T19:54:41.375Z,80.70
2023-05-17T19:57:27.520Z,80.90
2023-05-17T20:00:14.060Z,81.60
2023-05-17T20:02:59.854Z,81.70
2023-05-17T20:05:45.883Z,81.40
2023-05-17T20:08:32.001Z,81.70
2023-05-17T20:11:19.254Z,82.10
2023-05-17T20:14:05.008Z,82.90
2023-05-17T20:16:51.286Z,83.10
2023-05-17T20:19:38.522Z,83.20
2023-05-17T20:22:24.479Z,83.70
2023-05-17T20:25:11.137Z,84.50
2023-05-17T20:27:58.314Z,84.60
2023-05-17T20:30:45.604Z,85.00
2023-05-17T20:33:31.692Z,86.50
2023-05-17T20:36:17.389Z,87.30
2023-05-17T20:39:03.478Z,88.90
2023-05-17T20:41:49.586Z,90.10
2023-05-17T20:44:36.703Z,90.20
2023-05-17T20:47:22.861Z,91.00
2023-05-17T20:50:12.225Z,90.90
2023-05-17T20:52:57.898Z,91.00
2023-05-17T20:55:44.487Z,90.30
2023-05-17T20:58:31.063Z,90.30
2023-05-17T21:01:18.749Z,90.60
2023-05-17T21:04:04.972Z,91.20
2023-05-17T21:06:50.695Z,91.60
2023-05-17T21:09:37.006Z,92.20
2023-05-17T21:12:23.954Z,92.20
2023-05-17T21:15:31.107Z,92.90
2023-05-17T21:18:17.927Z,93.00
2023-05-17T21:21:03.816Z,92.70
2023-05-17T21:23:49.601Z,92.90
2023-05-17T21:26:36.908Z,93.70
2023-05-17T21:29:24.932Z,94.00
2023-05-17T21:32:10.886Z,94.50
2023-05-17T21:34:59.589Z,95.00
2023-05-17T21:37:45.569Z,95.30
2023-05-17T21:40:31.962Z,95.20
2023-05-17T21:43:18.079Z,95.10
2023-05-17T21:46:03.758Z,94.80
2023-05-17T21:48:49.402Z,94.50
2023-05-17T21:51:36.561Z,94.80
2023-05-17T21:54:24.637Z,95.40
2023-05-17T21:57:10.508Z,96.10
2023-05-17T21:59:56.138Z,96.00
2023-05-17T22:02:43.153Z,96.30
2023-05-17T22:05:28.855Z,95.80
2023-05-17T22:08:17.723Z,95.60
2023-05-17T22:11:03.983Z,95.40
2023-05-17T22:13:50.511Z,95.40
2023-05-17T22:16:36.552Z,95.60
2023-05-17T22:19:23.382Z,95.90
2023-05-17T22:22:09.354Z,96.70
2023-05-17T22:24:56.511Z,96.90
2023-05-17T22:27:42.076Z,96.50
2023-05-17T22:30:28.019Z,96.20
2023-05-17T22:33:13.829Z,95.80
2023-05-17T22:36:02.435Z,96.10
2023-05-17T22:38:48.506Z,96.00
2023-05-17T22:41:36.287Z,96.10
2023-05-17T22:44:22.269Z,96.50
2023-05-17T22:47:09.221Z,96.70
2023-05-17T22:49:54.976Z,96.50
2023-05-17T22:52:42.630Z,96.20
2023-05-17T22:55:28.882Z,96.20
2023-05-17T22:58:16.410Z,96.20
2023-05-17T23:01:02.110Z,96.60
2023-05-17T23:03:47.879Z,96.70
2023-05-17T23:06:34.316Z,96.60
2023-05-17T23:09:21.254Z,96.40
2023-05-17T23:12:07.754Z,96.40
2023-05-17T23:14:57.866Z,96.40
2023-05-17T23:17:44.025Z,96.60
2023-05-17T23:20:29.746Z,97.00
2023-05-17T23:23:15.818Z,97.00
2023-05-17T23:26:01.872Z,97.30
2023-05-17T23:28:50.252Z,97.70
2023-05-17T23:31:37.831Z,98.00
2023-05-17T23:34:23.788Z,97.70
2023-05-17T23:37:09.738Z,98.60
2023-05-17T23:39:55.569Z,98.40
2023-05-17T23:42:41.787Z,98.30
2023-05-17T23:45:27.859Z,98.70
2023-05-17T23:48:16.048Z,99.00
2023-05-17T23:51:02.007Z,99.00
2023-05-17T23:53:48.984Z,99.30
2023-05-17T23:56:34.739Z,99.30
2023-05-17T23:59:22.781Z,99.00
